Weather History for KBYY - September, 2013

Change the Weather History Date:

Saturday, September 21, 2013

  Actual Average (KLBX) Record (KLBX)
Temperature  
Mean Temperature 75 °F -  
Max Temperature 78 °F 84 °F 100 °F (2005)
Min Temperature 72 °F 67 °F 57 °F (2012)
Cooling Degree Days 10    
Growing Degree Days 25 (Base 50)    
Moisture  
Dew Point 72 °F    
Average Humidity 88    
Maximum Humidity 97    
Minimum Humidity 77    
Precipitation  
Precipitation 1.93 in - - ()
Sea Level Pressure  
Sea Level Pressure 29.77 in    
Wind  
Wind Speed 9 mph (NNE)    
Max Wind Speed 16 mph    
Max Gust Speed 23 mph    
Visibility 9 miles    
Events Rain    
Averages and records for this station are not official NWS values.
T = Trace of Precipitation, MM = Missing Value Source: NWS Daily Summary

Daily Weather History Graph

Daily Weather History Graph

Search for Another Location

Airport or City:

Trip Planner

Search our weather history database for the weather conditions in past years. The results will help you decide how hot, cold, wet, or windy it might be!

Date:

Astronomy

Sep. 21, 2013 Rise Set
Actual Time 7:11 AM CDT 7:20 PM CDT
Civil Twilight 6:47 AM CDT 7:44 PM CDT
Nautical Twilight 6:20 AM CDT 8:12 PM CDT
Astronomical Twilight 5:52 AM CDT 8:39 PM CDT
Moon 8:48 PM CDT (9/21) 9:16 AM CDT (9/21)
Length of Visible Light 12h 56m
Length of Day
12h 09m
Waning Gibbous, 94% of the Moon is Illuminated
Sep 21
Waning Gibbous
Sep 26
Last Quarter
Oct 4
New
Oct 11
First Quarter
Oct 18
Full

Hourly Weather History & Observations

Time (CDT) Temp. Dew Point Humidity Pressure Visibility Wind Dir Wind Speed Gust Speed Precip Events Conditions
12:15 AM 75.9 °F 74.5 °F 95% 29.77 in 2.0 mi NNW 11.5 mph - 0.31 in Rain Heavy Rain
12:35 AM 75.9 °F 74.7 °F 96% 29.77 in 7.0 mi North 9.2 mph - 0.48 in Rain Rain
12:55 AM 76.1 °F 74.8 °F 96% 29.76 in 10.0 mi ENE 5.8 mph - 0.49 in Rain Light Rain
1:15 AM 76.1 °F 74.8 °F 96% 29.75 in 10.0 mi North 5.8 mph - 0.02 in Rain Rain
1:35 AM 75.9 °F 74.8 °F 96% 29.74 in 7.0 mi NE 5.8 mph - 0.08 in Rain Rain
1:55 AM 75.7 °F 74.7 °F 96% 29.75 in 10.0 mi North 3.5 mph - 0.10 in Rain Rain
2:15 AM 76.1 °F 74.8 °F 96% 29.76 in 10.0 mi NE 4.6 mph - 0.01 in Rain Light Rain
2:35 AM 76.1 °F 75.0 °F 96% 29.75 in 7.0 mi Calm Calm - 0.04 in Rain Light Rain
2:55 AM 76.1 °F 74.8 °F 96% 29.75 in 10.0 mi NNW 3.5 mph - 0.04 in Rain Light Rain
3:15 AM 76.1 °F 74.8 °F 96% 29.74 in 10.0 mi NNW 3.5 mph - N/A Rain Light Rain
3:35 AM 76.1 °F 74.8 °F 96% 29.73 in 10.0 mi North 5.8 mph - N/A   Overcast
3:55 AM 76.1 °F 74.8 °F 96% 29.73 in 10.0 mi North 6.9 mph - N/A   Overcast
4:15 AM 76.1 °F 75.2 °F 97% 29.73 in 7.0 mi North 9.2 mph - N/A   Overcast
4:35 AM 76.1 °F 75.2 °F 97% 29.73 in 3.0 mi NNE 8.1 mph - N/A Rain Light Rain
4:55 AM 75.7 °F 74.7 °F 96% 29.74 in 3.0 mi North 16.1 mph - 0.03 in Rain Heavy Rain
5:15 AM 75.0 °F 73.8 °F 96% 29.74 in 5.0 mi North 12.7 mph 19.6 mph 0.02 in Rain Light Rain
5:35 AM 74.5 °F 73.4 °F 96% 29.74 in 5.0 mi NNE 10.4 mph - 0.15 in Rain Heavy Rain
5:55 AM 74.5 °F 73.2 °F 96% 29.73 in 5.0 mi NNE 13.8 mph 18.4 mph 0.19 in Rain Light Rain
6:15 AM 74.3 °F 73.0 °F 96% 29.74 in 10.0 mi North 10.4 mph - 0.01 in Rain Light Rain
6:35 AM 74.3 °F 72.9 °F 95% 29.74 in 10.0 mi North 13.8 mph - 0.02 in   Overcast
6:55 AM 74.3 °F 72.7 °F 95% 29.75 in 10.0 mi North 12.7 mph 18.4 mph 0.02 in Rain Light Rain
7:15 AM 73.9 °F 72.5 °F 95% 29.75 in 7.0 mi North 11.5 mph - 0.05 in Rain Heavy Rain
7:35 AM 73.4 °F 72.1 °F 96% 29.76 in 5.0 mi North 11.5 mph - 0.19 in Rain Rain
7:55 AM 73.0 °F 71.8 °F 96% 29.77 in 3.0 mi North 13.8 mph 19.6 mph 0.35 in Rain Heavy Rain
8:15 AM 72.5 °F 71.4 °F 96% 29.78 in 1.0 mi North 10.4 mph 16.1 mph 0.39 in Rain Heavy Rain
8:35 AM 72.5 °F 71.6 °F 97% 29.78 in 1.8 mi North 11.5 mph - 0.63 in Rain Heavy Rain
8:55 AM 72.5 °F 71.6 °F 97% 29.79 in 7.0 mi North 11.5 mph - 0.69 in Rain Rain
9:15 AM 72.7 °F 71.6 °F 96% 29.79 in 7.0 mi NNE 13.8 mph 21.9 mph 0.01 in Rain Light Rain
9:35 AM 73.0 °F 71.6 °F 95% 29.80 in 10.0 mi North 10.4 mph - 0.02 in   Light Drizzle
9:55 AM 73.4 °F 71.8 °F 95% 29.80 in 10.0 mi North 16.1 mph 19.6 mph 0.02 in   Light Drizzle
10:15 AM 73.8 °F 71.8 °F 93% 29.80 in 10.0 mi North 16.1 mph 21.9 mph N/A   Overcast
10:35 AM 74.1 °F 72.0 °F 93% 29.81 in 10.0 mi North 15.0 mph 23.0 mph N/A   Overcast
10:55 AM 74.1 °F 71.8 °F 92% 29.82 in 10.0 mi North 11.5 mph 19.6 mph N/A   Overcast
11:15 AM 74.7 °F 72.0 °F 91% 29.82 in 10.0 mi NNE 13.8 mph 20.7 mph N/A   Overcast
11:35 AM 75.4 °F 72.1 °F 90% 29.82 in 10.0 mi NNE 13.8 mph - N/A   Overcast
11:55 AM 75.4 °F 72.1 °F 90% 29.81 in 10.0 mi North 15.0 mph 21.9 mph N/A   Overcast
12:15 PM 76.5 °F 72.5 °F 87% 29.81 in 10.0 mi North 16.1 mph - N/A   Overcast
12:35 PM 76.6 °F 72.0 °F 85% 29.81 in 10.0 mi North 13.8 mph 20.7 mph N/A   Overcast
12:55 PM 76.6 °F 71.8 °F 85% 29.80 in 10.0 mi North 11.5 mph 19.6 mph N/A   Overcast
1:15 PM 77.0 °F 72.1 °F 85% 29.80 in 10.0 mi North 11.5 mph - N/A   Overcast
1:35 PM 76.8 °F 72.0 °F 85% 29.80 in 10.0 mi North 11.5 mph - N/A   Overcast
1:55 PM 77.0 °F 71.8 °F 84% 29.79 in 10.0 mi North 15.0 mph 19.6 mph N/A   Overcast
2:15 PM 77.0 °F 71.4 °F 83% 29.78 in 10.0 mi North 12.7 mph 19.6 mph N/A   Overcast
2:35 PM 77.0 °F 71.1 °F 82% 29.78 in 10.0 mi NNE 9.2 mph 21.9 mph N/A   Overcast
2:55 PM 77.7 °F 71.1 °F 80% 29.77 in 10.0 mi NNE 11.5 mph - N/A   Overcast
3:15 PM 77.2 °F 70.9 °F 81% 29.77 in 10.0 mi North 12.7 mph 23.0 mph N/A   Overcast
3:35 PM 77.0 °F 70.7 °F 81% 29.77 in 10.0 mi North 12.7 mph 20.7 mph N/A   Overcast
3:55 PM 77.2 °F 70.5 °F 80% 29.77 in 10.0 mi North 12.7 mph 19.6 mph N/A   Overcast
4:15 PM 77.4 °F 70.3 °F 79% 29.77 in 10.0 mi North 9.2 mph 18.4 mph N/A   Overcast
4:35 PM 78.1 °F 70.9 °F 78% 29.76 in 10.0 mi North 13.8 mph 19.6 mph N/A   Overcast
4:55 PM 77.9 °F 70.7 °F 78% 29.76 in 10.0 mi NNE 9.2 mph - N/A   Overcast
5:15 PM 78.4 °F 70.7 °F 77% 29.76 in 10.0 mi North 9.2 mph - N/A   Overcast
5:35 PM 78.4 °F 70.7 °F 77% 29.76 in 10.0 mi North 6.9 mph - N/A   Overcast
5:55 PM 78.4 °F 71.1 °F 78% 29.76 in 10.0 mi NNE 6.9 mph - N/A   Overcast
6:15 PM 78.6 °F 70.9 °F 77% 29.76 in 10.0 mi NNE 10.4 mph - N/A   Overcast
6:35 PM 77.9 °F 70.3 °F 77% 29.76 in 10.0 mi NNE 5.8 mph - N/A   Overcast
6:55 PM 77.2 °F 70.5 °F 80% 29.76 in 10.0 mi NNE 4.6 mph - N/A   Mostly Cloudy
7:15 PM 76.6 °F 70.7 °F 82% 29.77 in 10.0 mi NNE 4.6 mph - N/A   Overcast
7:35 PM 76.5 °F 70.7 °F 82% 29.77 in 10.0 mi NNE 6.9 mph - N/A   Overcast
7:55 PM 76.6 °F 70.3 °F 81% 29.77 in 10.0 mi NE 8.1 mph - N/A   Overcast
8:15 PM 76.6 °F 69.8 °F 79% 29.78 in 10.0 mi NE 6.9 mph - N/A   Overcast
8:35 PM 76.8 °F 69.6 °F 78% 29.78 in 10.0 mi NNE 6.9 mph - N/A   Overcast
8:55 PM 76.5 °F 69.1 °F 78% 29.79 in 10.0 mi NNE 6.9 mph - N/A   Overcast
9:15 PM 76.5 °F 68.9 °F 77% 29.79 in 10.0 mi NNE 8.1 mph - N/A   Overcast
9:35 PM 76.5 °F 68.9 °F 77% 29.80 in 10.0 mi NNE 6.9 mph - N/A   Overcast
9:55 PM 76.1 °F 68.9 °F 78% 29.80 in 10.0 mi NNE 5.8 mph - N/A   Overcast
10:15 PM 75.9 °F 69.3 °F 80% 29.80 in 10.0 mi NNE 5.8 mph - N/A   Overcast
10:35 PM 75.9 °F 69.3 °F 80% 29.80 in 10.0 mi NNE 6.9 mph - N/A   Overcast
10:55 PM 76.1 °F 69.1 °F 79% 29.80 in 10.0 mi NE 5.8 mph - N/A   Overcast
11:15 PM 76.1 °F 68.9 °F 78% 29.80 in 10.0 mi North 5.8 mph - N/A   Overcast
11:35 PM 75.4 °F 69.1 °F 81% 29.80 in 10.0 mi NNE 4.6 mph - N/A   Overcast
11:55 PM 75.4 °F 68.9 °F 80% 29.80 in 10.0 mi North 4.6 mph - N/A   Overcast